Terminal Aerodrome Forecast
Issued by NWS Detroit/Pontiac, MI

Home | Current Version | Previous Version | Text Only | Print | Product List | Glossary On
Versions: 1 2 3 4 5 6 7 8 9 10 11 12 13
288
FTUS43 KDTX 301121
TAFFNT
TAF
KFNT 301121Z 3012/0112 08042KT P6SM -SHRA OVC028
     FM301400 09012KT 4SM -RA BR OVC014
     FM301900 12012KT 3SM -RA BR SCT014 OVC022
     FM010100 10010KT 2SM SHRA BR OVC008=

USA.gov is the U.S. government's official web portal to all federal, state and local government web resources and services.